EGNS/IOM METAR and TAF weather

Enter ICAO airport designator
Station Type Date Time Source
EGNS METAR 2022/06/28 09:20 UTC NOAA

EGNS 280920Z 18024KT 6000 RA FEW010 OVC015 13/12 Q1009 NOSIG


Station Type Date Time Source
EGNS Decoded METAR 2022/06/28 09:20 UTC NOAA

Isle Of Man / Ronaldsway Airport, United Kingdom (EGNS) 54-05N 004-38W 0M
Jun 28, 2022 - 05:20 AM EDT / 2022.06.28 0920 UTC
Wind: from the S (180 degrees) at 28 MPH (24 KT):0
Visibility: 3 mile(s):0
Sky conditions: overcast
Weather: rain
Temperature: 55 F (13 C)
Dew Point: 53 F (12 C)
Relative Humidity: 93%
Pressure (altimeter): 29.80 in. Hg (1009 hPa)
ob: EGNS 280920Z 18024KT 6000 RA FEW010 OVC015 13/12 Q1009 NOSIG
cycle: 9

Station Type Date Time Source
EGNS TAF 2022/06/27 06:21 UTC NOAA

TAF TAF EGNS 270505Z 2706/2718 24014KT 9999 FEW012 SCT025

Example: see airport list